Maersk Douglas — DCPL2 — position and weather

sailwx.info

Track history (hours):
 
Tides and Currents Weather Stations Pressure Air Temp Water Temp Dewpoint Dewpoint Depression Visibility Wind Speed Wind Dir Waves Ship Positions

Maersk Douglas

Last reported at 2016-Jun-25 04:33 UTC. Time now 2016-Jun-25 05:16 UTC.
Position N 53°33' E 009°48'.

Length 294.1 m; beam 32.2 m; draft 13.7 m.

Type: Tug. MMSI: 211710650.

Date/timePositionNaut miles runAvg speedWind from/ knotsBaromVisibWave heightAir tempDewpointWater temp
2016-Jun-25 04:33N 53°33' E 009°48'5 4.5
2016-Jun-25 03:33N 53°33' E 009°55'0 0.0
2016-Jun-25 02:33N 53°33' E 009°55'0 0.0
2016-Jun-25 01:33N 53°33' E 009°55'0 0.0
2016-Jun-25 00:33N 53°33' E 009°55'0 0.0
2016-Jun-24 23:33N 53°33' E 009°55'2 2.3
2016-Jun-24 22:33N 53°31' E 009°57'2 2.3
2016-Jun-24 21:33N 53°33' E 009°55'0 0.0
2016-Jun-24 20:33N 53°33' E 009°55'0 0.0
2016-Jun-24 19:33N 53°33' E 009°55'0 0.0
2016-Jun-24 18:33N 53°33' E 009°55'0 0.0
2016-Jun-24 17:33N 53°33' E 009°55'0 0.0
2016-Jun-24 16:33N 53°33' E 009°55'0 0.0
2016-Jun-24 15:33N 53°33' E 009°55'0 0.0
2016-Jun-24 14:33N 53°33' E 009°55'0 0.0
2016-Jun-24 13:34N 53°33' E 009°55'0 0.0
2016-Jun-24 12:33N 53°33' E 009°55'0 0.0
2016-Jun-24 11:33N 53°33' E 009°55'0 0.0
2016-Jun-24 10:33N 53°33' E 009°55'0 0.0
2016-Jun-24 09:33N 53°33' E 009°55'0 0.0
2016-Jun-24 08:33N 53°33' E 009°55'0 0.0
2016-Jun-24 07:33N 53°33' E 009°55'0 0.0
2016-Jun-24 04:33N 53°33' E 009°55'0 0.0
2016-Jun-24 03:33N 53°33' E 009°55'2 2.5
2016-Jun-24 02:33N 53°33' E 009°51'2 2.2
2016-Jun-24 01:33N 53°33' E 009°55'2 2.5
2016-Jun-24 00:34N 53°31' E 009°57'2 2.3
2016-Jun-23 23:34N 53°33' E 009°55'0 0.0
2016-Jun-23 22:33N 53°33' E 009°55'0 0.0
2016-Jun-23 21:33N 53°33' E 009°55'0 0.0
2016-Jun-23 20:33N 53°33' E 009°55'0 0.0
2016-Jun-23 19:33N 53°33' E 009°55'1 0.9
2016-Jun-23 18:33N 53°32' E 009°55'4 3.9
2016-Jun-23 17:33N 53°33' E 009°49'1 0.8
2016-Jun-23 16:33N 53°33' E 009°48'4 4.4
2016-Jun-23 15:33N 53°33' E 009°55'0 0.0
2016-Jun-23 14:33N 53°33' E 009°55'0 0.0
2016-Jun-23 13:33N 53°33' E 009°55'0 0.0
2016-Jun-23 12:33N 53°33' E 009°55'0 0.0
2016-Jun-23 11:33N 53°33' E 009°55'0 0.0
2016-Jun-23 10:33N 53°33' E 009°55'0 0.0
2016-Jun-23 09:34N 53°33' E 009°55'0 0.0
2016-Jun-23 08:33N 53°33' E 009°55'0 0.0
2016-Jun-23 07:33N 53°33' E 009°55'0 0.0
2016-Jun-23 05:33N 53°33' E 009°55'1 0.9
2016-Jun-23 04:33N 53°32' E 009°55'1 0.9
2016-Jun-23 03:34N 53°33' E 009°55'1 0.9
2016-Jun-23 02:33N 53°32' E 009°56'1 1.5
2016-Jun-23 01:33N 53°30' E 009°57'2 2.4
2016-Jun-23 00:33N 53°33' E 009°55'0 0.0
2016-Jun-22 23:33N 53°33' E 009°55'0 0.0
2016-Jun-22 22:33N 53°33' E 009°55'0 0.0
2016-Jun-22 21:33N 53°33' E 009°55'0 0.0
2016-Jun-22 20:33N 53°33' E 009°55'0 0.3
2016-Jun-22 19:34N 53°32' E 009°55'3 2.7
2016-Jun-22 18:34N 53°33' E 009°50'4 3.8
2016-Jun-22 17:33N 53°31' E 009°56'2 1.7
2016-Jun-22 16:34N 53°33' E 009°55'0 0.1
2016-Jun-22 15:33N 53°33' E 009°55'0 0.0
2016-Jun-22 14:34N 53°33' E 009°55'0 0.0
2016-Jun-22 13:33N 53°33' E 009°55'0 0.0
2016-Jun-22 12:33N 53°33' E 009°55'0 0.0
2016-Jun-22 11:33N 53°33' E 009°55'0 0.0
2016-Jun-22 10:33N 53°33' E 009°55'0 0.0
2016-Jun-22 09:33N 53°33' E 009°55'0 0.0
2016-Jun-22 08:33N 53°33' E 009°55'0 0.0
2016-Jun-22 07:33N 53°33' E 009°55'0 0.0
2016-Jun-22 06:33N 53°33' E 009°55'0 0.0
2016-Jun-22 05:33N 53°33' E 009°55'3 3.4
2016-Jun-22 04:33N 53°29' E 009°57'2 1.6
2016-Jun-22 03:33N 53°31' E 009°56'2 1.8
2016-Jun-22 02:34N 53°33' E 009°55'1 1.0
2016-Jun-22 01:34N 53°32' E 009°54'1 0.9
2016-Jun-22 00:33N 53°33' E 009°55'0 0.0
2016-Jun-21 23:33N 53°33' E 009°55'0 0.0
2016-Jun-21 22:33N 53°33' E 009°55'0 0.0
2016-Jun-21 21:33N 53°33' E 009°55'0 0.0
2016-Jun-21 20:33N 53°33' E 009°55'1 1.3
2016-Jun-21 19:33N 53°31' E 009°56'1 1.1
2016-Jun-21 18:34N 53°32' E 009°56'0 0.2
2016-Jun-21 17:33N 53°33' E 009°55'0 0.0
2016-Jun-21 16:33N 53°33' E 009°55'2 2.4
2016-Jun-21 15:34N 53°32' E 009°59'2 1.9
2016-Jun-21 14:33N 53°31' E 009°56'3 3.3
2016-Jun-21 13:33N 53°33' E 009°51'2 2.4
2016-Jun-21 12:33N 53°33' E 009°55'0 0.0
2016-Jun-21 11:33N 53°33' E 009°55'0 0.0
2016-Jun-21 10:33N 53°33' E 009°55'0 0.0
2016-Jun-21 09:33N 53°33' E 009°55'0 0.0
2016-Jun-21 08:33N 53°33' E 009°55'0 0.0
2016-Jun-21 07:33N 53°33' E 009°55'0 0.0
2016-Jun-21 06:33N 53°33' E 009°55'0 0.0
2016-Jun-21 04:33N 53°33' E 009°55'2 1.7
2016-Jun-21 03:33N 53°31' E 009°56'3 2.9
2016-Jun-21 02:33N 53°33' E 009°52'2 1.9
2016-Jun-21 01:33N 53°33' E 009°55'0 0.0
2016-Jun-21 00:33N 53°33' E 009°55'0 0.0
2016-Jun-20 23:33N 53°33' E 009°55'0 0.0
2016-Jun-20 22:33N 53°33' E 009°55'0 0.0
2016-Jun-20 21:33N 53°33' E 009°55'0 0.0
2016-Jun-20 20:33N 53°33' E 009°55'0 0.0
2016-Jun-20 19:33N 53°33' E 009°55'0 0.0
2016-Jun-20 18:33N 53°33' E 009°55'0 0.0
2016-Jun-20 17:33N 53°33' E 009°55'0 0.0
2016-Jun-20 16:33N 53°33' E 009°55'0 0.0
2016-Jun-20 15:33N 53°33' E 009°55'0 0.0
2016-Jun-20 14:34N 53°33' E 009°55'0 0.0
2016-Jun-20 13:33N 53°33' E 009°55'0 0.0
2016-Jun-20 12:33N 53°33' E 009°55'0 0.3
2016-Jun-20 11:34N 53°32' E 009°56'0 0.3
2016-Jun-20 10:33N 53°33' E 009°55'0 0.0
2016-Jun-20 09:34N 53°33' E 009°55'0 0.0
2016-Jun-20 08:34N 53°33' E 009°55'0 0.0
2016-Jun-20 07:34N 53°33' E 009°55'1 1.4
2016-Jun-20 06:34N 53°33' E 009°58'3 3.0
2016-Jun-20 05:34N 53°30' E 009°59'1 0.6
2016-Jun-20 04:33N 53°29' E 009°59'4 4.1
2016-Jun-20 03:34N 53°33' E 009°55'0 0.0
2016-Jun-20 02:33N 53°33' E 009°55'0 0.0
2016-Jun-20 01:34N 53°33' E 009°55'0 0.0
2016-Jun-20 00:34N 53°33' E 009°55'0 0.0
2016-Jun-19 23:33N 53°33' E 009°55'0 0.0
2016-Jun-19 22:34N 53°33' E 009°55'0 0.0
2016-Jun-19 21:34N 53°33' E 009°55'0 0.0
2016-Jun-19 20:34N 53°33' E 009°55'0 0.0
2016-Jun-19 19:34N 53°33' E 009°55'0 0.0
2016-Jun-19 18:34N 53°33' E 009°55'0 0.0
2016-Jun-19 17:34N 53°33' E 009°55'0 0.0
2016-Jun-19 16:34N 53°33' E 009°55'1 0.5
2016-Jun-19 15:33N 53°32' E 009°56'1 0.5
2016-Jun-19 14:34N 53°33' E 009°55'0 0.0
2016-Jun-19 13:34N 53°33' E 009°55'0 0.0
2016-Jun-19 12:34N 53°33' E 009°55'0 0.0
2016-Jun-19 11:33N 53°33' E 009°55'2 1.7
2016-Jun-19 10:34N 53°33' E 009°53'0 0.1
2016-Jun-19 09:33N 53°33' E 009°52'2 1.7
2016-Jun-19 08:33N 53°32' E 009°55'1 0.8
2016-Jun-19 07:33N 53°33' E 009°55'0 0.0
2016-Jun-19 06:33N 53°33' E 009°55'0 0.0
2016-Jun-19 05:33N 53°33' E 009°55'0 0.0
2016-Jun-19 04:33N 53°33' E 009°55'0 0.0
2016-Jun-19 03:33N 53°33' E 009°55'0 0.0
2016-Jun-19 02:33N 53°33' E 009°55'2 1.6
2016-Jun-19 01:34N 53°31' E 009°56'2 1.6
2016-Jun-19 00:34N 53°33' E 009°55'0 0.1
2016-Jun-18 23:33N 53°33' E 009°55'0 0.0
2016-Jun-18 22:33N 53°33' E 009°55'0 0.0
2016-Jun-18 21:33N 53°33' E 009°55'0 0.0
2016-Jun-18 20:33N 53°33' E 009°55'0 0.0
2016-Jun-18 19:33N 53°33' E 009°55'0 0.0
2016-Jun-18 18:33N 53°33' E 009°55'0 0.0
2016-Jun-18 17:34N 53°33' E 009°55'0 0.0
2016-Jun-18 16:33N 53°33' E 009°55'0 0.0
2016-Jun-18 15:33N 53°33' E 009°55'0 0.0
2016-Jun-18 14:33N 53°33' E 009°55'0 0.0
2016-Jun-18 13:33N 53°33' E 009°55'0 0.0
2016-Jun-18 12:33N 53°33' E 009°55'0 0.0
2016-Jun-18 11:33N 53°33' E 009°55'0 0.0
2016-Jun-18 10:33N 53°33' E 009°55'0 0.0
2016-Jun-18 09:33N 53°33' E 009°55'0 0.0
2016-Jun-18 08:33N 53°33' E 009°55'2 2.4
2016-Jun-18 07:33N 53°30' E 009°56'2 2.4
2016-Jun-18 06:33N 53°33' E 009°55'0 0.0
2016-Jun-18 05:33N 53°33' E 009°55'1 0.9
2016-Jun-18 04:33N 53°32' E 009°55'1 0.9
2016-Jun-18 03:33N 53°33' E 009°55'0 0.0
2016-Jun-18 02:33N 53°33' E 009°55'0 0.0
2016-Jun-18 01:33N 53°33' E 009°55'0 0.0
2016-Jun-18 00:33N 53°33' E 009°55'0 0.0
2016-Jun-17 23:33N 53°33' E 009°55'3 3.0
2016-Jun-17 22:33N 53°30' E 009°57'1 1.0
2016-Jun-17 21:33N 53°29' E 009°58'4 4.0
2016-Jun-17 20:33N 53°33' E 009°55'0 0.0
2016-Jun-17 19:33N 53°33' E 009°55'0 0.0
2016-Jun-17 18:33N 53°33' E 009°55'0 0.0
2016-Jun-17 17:33N 53°33' E 009°55'0 0.0
2016-Jun-17 16:33N 53°33' E 009°55'0 0.0
2016-Jun-17 15:33N 53°33' E 009°55'0 0.0
2016-Jun-17 14:33N 53°33' E 009°55'1 0.8
2016-Jun-17 13:34N 53°32' E 009°55'6 6.2
2016-Jun-17 12:33N 53°34' E 009°45'3 3.1
2016-Jun-17 11:33N 53°33' E 009°50'3 3.2
2016-Jun-17 10:33N 53°33' E 009°55'0 0.0
2016-Jun-17 09:33N 53°33' E 009°55'0 0.0
2016-Jun-17 08:33N 53°33' E 009°55'0 0.0
2016-Jun-17 07:33N 53°33' E 009°55'0 0.0
2016-Jun-17 06:33N 53°33' E 009°55'0 0.0
2016-Jun-17 05:33N 53°33' E 009°55'1 1.3
2016-Jun-17 04:33N 53°32' E 009°53'1 1.3
2016-Jun-17 03:33N 53°33' E 009°55'0 0.0
2016-Jun-17 02:33N 53°33' E 009°55'1 0.9
2016-Jun-17 01:33N 53°32' E 009°55'2 2.4
2016-Jun-17 00:33N 53°33' E 009°52'4 3.9
2016-Jun-16 23:33N 53°34' E 009°45'6 5.9
2016-Jun-16 22:33N 53°33' E 009°55'0 0.0
2016-Jun-16 21:33N 53°33' E 009°55'0 0.0
2016-Jun-16 20:33N 53°33' E 009°55'0 0.0
2016-Jun-16 19:33N 53°33' E 009°55'0 0.0
2016-Jun-16 18:33N 53°33' E 009°55'0 0.0
2016-Jun-16 17:33N 53°33' E 009°55'0 0.0
2016-Jun-16 16:34N 53°33' E 009°55'0 0.0
2016-Jun-16 15:33N 53°33' E 009°55'0 0.0
2016-Jun-16 14:33N 53°33' E 009°55'0 0.1
2016-Jun-16 13:33N 53°33' E 009°55'0 0.0
2016-Jun-16 12:33N 53°33' E 009°55'0 0.4
2016-Jun-16 11:33N 53°32' E 009°55'4 4.0
2016-Jun-16 10:33N 53°29' E 009°58'2 2.1
2016-Jun-16 09:34N 53°31' E 009°57'1 1.2
2016-Jun-16 08:34N 53°32' E 009°56'1 1.0
2016-Jun-16 07:34N 53°32' E 009°55'3 2.5
2016-Jun-16 06:34N 53°33' E 009°50'3 2.9
2016-Jun-16 05:34N 53°33' E 009°55'0 0.0
2016-Jun-16 04:34N 53°33' E 009°55'0 0.0
2016-Jun-16 03:34N 53°33' E 009°55'0 0.0
2016-Jun-16 02:33N 53°33' E 009°55'0 0.0
2016-Jun-16 01:34N 53°33' E 009°55'0 0.0
2016-Jun-16 00:34N 53°33' E 009°55'0 0.0
2016-Jun-15 23:34N 53°33' E 009°55'0 0.0
2016-Jun-15 22:34N 53°33' E 009°55'0 0.0
2016-Jun-15 21:34N 53°33' E 009°55'0 0.0
2016-Jun-15 20:34N 53°33' E 009°55'0 0.0
2016-Jun-15 19:34N 53°33' E 009°55'0 0.0
2016-Jun-15 18:34N 53°33' E 009°55'0 0.0
2016-Jun-15 17:34N 53°33' E 009°55'0 0.0
2016-Jun-15 16:34N 53°33' E 009°55'0 0.0
2016-Jun-15 15:34N 53°33' E 009°55'0 0.0
2016-Jun-15 14:34N 53°33' E 009°55'0 0.0
2016-Jun-15 13:33N 53°33' E 009°55'0 0.0
2016-Jun-15 12:34N 53°33' E 009°55'0 0.0
2016-Jun-15 11:34N 53°33' E 009°55'0 0.0
2016-Jun-15 10:34N 53°33' E 009°55'0 0.0
2016-Jun-15 09:34N 53°33' E 009°55'0 0.0
2016-Jun-15 08:34N 53°33' E 009°55'3 2.8
2016-Jun-15 07:34N 53°30' E 009°57'3 2.9
2016-Jun-15 06:34N 53°32' E 009°54'1 0.6
2016-Jun-15 05:34N 53°33' E 009°55'1 0.7
2016-Jun-15 04:34N 53°32' E 009°54'  
Track history (hours):
 
Tides and Currents Weather Stations Pressure Air Temp Water Temp Dewpoint Dewpoint Depression Visibility Wind Speed Wind Dir Waves Ship Positions

Maersk Douglas

Last reported at 2016-Jun-25 04:33 UTC. Time now 2016-Jun-25 05:16 UTC.
Position N 53°33' E 009°48'.

Length 294.1 m; beam 32.2 m; draft 13.7 m.

Type: Tug. MMSI: 211710650.

Date/timePositionNaut miles runAvg speedWind from/ knotsBaromVisibWave heightAir tempDewpointWater temp
2016-Jun-25 04:33N 53°33' E 009°48'5 4.5
2016-Jun-25 03:33N 53°33' E 009°55'0 0.0
2016-Jun-25 02:33N 53°33' E 009°55'0 0.0
2016-Jun-25 01:33N 53°33' E 009°55'0 0.0
2016-Jun-25 00:33N 53°33' E 009°55'0 0.0
2016-Jun-24 23:33N 53°33' E 009°55'2 2.3
2016-Jun-24 22:33N 53°31' E 009°57'2 2.3
2016-Jun-24 21:33N 53°33' E 009°55'0 0.0
2016-Jun-24 20:33N 53°33' E 009°55'0 0.0
2016-Jun-24 19:33N 53°33' E 009°55'0 0.0
2016-Jun-24 18:33N 53°33' E 009°55'0 0.0
2016-Jun-24 17:33N 53°33' E 009°55'0 0.0
2016-Jun-24 16:33N 53°33' E 009°55'0 0.0
2016-Jun-24 15:33N 53°33' E 009°55'0 0.0
2016-Jun-24 14:33N 53°33' E 009°55'0 0.0
2016-Jun-24 13:34N 53°33' E 009°55'0 0.0
2016-Jun-24 12:33N 53°33' E 009°55'0 0.0
2016-Jun-24 11:33N 53°33' E 009°55'0 0.0
2016-Jun-24 10:33N 53°33' E 009°55'0 0.0
2016-Jun-24 09:33N 53°33' E 009°55'0 0.0
2016-Jun-24 08:33N 53°33' E 009°55'0 0.0
2016-Jun-24 07:33N 53°33' E 009°55'0 0.0
2016-Jun-24 04:33N 53°33' E 009°55'0 0.0
2016-Jun-24 03:33N 53°33' E 009°55'2 2.5
2016-Jun-24 02:33N 53°33' E 009°51'2 2.2
2016-Jun-24 01:33N 53°33' E 009°55'2 2.5
2016-Jun-24 00:34N 53°31' E 009°57'2 2.3
2016-Jun-23 23:34N 53°33' E 009°55'0 0.0
2016-Jun-23 22:33N 53°33' E 009°55'0 0.0
2016-Jun-23 21:33N 53°33' E 009°55'0 0.0
2016-Jun-23 20:33N 53°33' E 009°55'0 0.0
2016-Jun-23 19:33N 53°33' E 009°55'1 0.9
2016-Jun-23 18:33N 53°32' E 009°55'4 3.9
2016-Jun-23 17:33N 53°33' E 009°49'1 0.8
2016-Jun-23 16:33N 53°33' E 009°48'4 4.4
2016-Jun-23 15:33N 53°33' E 009°55'0 0.0
2016-Jun-23 14:33N 53°33' E 009°55'0 0.0
2016-Jun-23 13:33N 53°33' E 009°55'0 0.0
2016-Jun-23 12:33N 53°33' E 009°55'0 0.0
2016-Jun-23 11:33N 53°33' E 009°55'0 0.0
2016-Jun-23 10:33N 53°33' E 009°55'0 0.0
2016-Jun-23 09:34N 53°33' E 009°55'0 0.0
2016-Jun-23 08:33N 53°33' E 009°55'0 0.0
2016-Jun-23 07:33N 53°33' E 009°55'0 0.0
2016-Jun-23 05:33N 53°33' E 009°55'1 0.9
2016-Jun-23 04:33N 53°32' E 009°55'1 0.9
2016-Jun-23 03:34N 53°33' E 009°55'1 0.9
2016-Jun-23 02:33N 53°32' E 009°56'1 1.5
2016-Jun-23 01:33N 53°30' E 009°57'2 2.4
2016-Jun-23 00:33N 53°33' E 009°55'0 0.0
2016-Jun-22 23:33N 53°33' E 009°55'0 0.0
2016-Jun-22 22:33N 53°33' E 009°55'0 0.0
2016-Jun-22 21:33N 53°33' E 009°55'0 0.0
2016-Jun-22 20:33N 53°33' E 009°55'0 0.3
2016-Jun-22 19:34N 53°32' E 009°55'3 2.7
2016-Jun-22 18:34N 53°33' E 009°50'4 3.8
2016-Jun-22 17:33N 53°31' E 009°56'2 1.7
2016-Jun-22 16:34N 53°33' E 009°55'0 0.1
2016-Jun-22 15:33N 53°33' E 009°55'0 0.0
2016-Jun-22 14:34N 53°33' E 009°55'0 0.0
2016-Jun-22 13:33N 53°33' E 009°55'0 0.0
2016-Jun-22 12:33N 53°33' E 009°55'0 0.0
2016-Jun-22 11:33N 53°33' E 009°55'0 0.0
2016-Jun-22 10:33N 53°33' E 009°55'0 0.0
2016-Jun-22 09:33N 53°33' E 009°55'0 0.0
2016-Jun-22 08:33N 53°33' E 009°55'0 0.0
2016-Jun-22 07:33N 53°33' E 009°55'0 0.0
2016-Jun-22 06:33N 53°33' E 009°55'0 0.0
2016-Jun-22 05:33N 53°33' E 009°55'3 3.4
2016-Jun-22 04:33N 53°29' E 009°57'2 1.6
2016-Jun-22 03:33N 53°31' E 009°56'2 1.8
2016-Jun-22 02:34N 53°33' E 009°55'1 1.0
2016-Jun-22 01:34N 53°32' E 009°54'1 0.9
2016-Jun-22 00:33N 53°33' E 009°55'0 0.0
2016-Jun-21 23:33N 53°33' E 009°55'0 0.0
2016-Jun-21 22:33N 53°33' E 009°55'0 0.0
2016-Jun-21 21:33N 53°33' E 009°55'0 0.0
2016-Jun-21 20:33N 53°33' E 009°55'1 1.3
2016-Jun-21 19:33N 53°31' E 009°56'1 1.1
2016-Jun-21 18:34N 53°32' E 009°56'0 0.2
2016-Jun-21 17:33N 53°33' E 009°55'0 0.0
2016-Jun-21 16:33N 53°33' E 009°55'2 2.4
2016-Jun-21 15:34N 53°32' E 009°59'2 1.9
2016-Jun-21 14:33N 53°31' E 009°56'3 3.3
2016-Jun-21 13:33N 53°33' E 009°51'2 2.4
2016-Jun-21 12:33N 53°33' E 009°55'0 0.0
2016-Jun-21 11:33N 53°33' E 009°55'0 0.0
2016-Jun-21 10:33N 53°33' E 009°55'0 0.0
2016-Jun-21 09:33N 53°33' E 009°55'0 0.0
2016-Jun-21 08:33N 53°33' E 009°55'0 0.0
2016-Jun-21 07:33N 53°33' E 009°55'0 0.0
2016-Jun-21 06:33N 53°33' E 009°55'0 0.0
2016-Jun-21 04:33N 53°33' E 009°55'2 1.7
2016-Jun-21 03:33N 53°31' E 009°56'3 2.9
2016-Jun-21 02:33N 53°33' E 009°52'2 1.9
2016-Jun-21 01:33N 53°33' E 009°55'0 0.0
2016-Jun-21 00:33N 53°33' E 009°55'0 0.0
2016-Jun-20 23:33N 53°33' E 009°55'0 0.0
2016-Jun-20 22:33N 53°33' E 009°55'0 0.0
2016-Jun-20 21:33N 53°33' E 009°55'0 0.0
2016-Jun-20 20:33N 53°33' E 009°55'0 0.0
2016-Jun-20 19:33N 53°33' E 009°55'0 0.0
2016-Jun-20 18:33N 53°33' E 009°55'0 0.0
2016-Jun-20 17:33N 53°33' E 009°55'0 0.0
2016-Jun-20 16:33N 53°33' E 009°55'0 0.0
2016-Jun-20 15:33N 53°33' E 009°55'0 0.0
2016-Jun-20 14:34N 53°33' E 009°55'0 0.0
2016-Jun-20 13:33N 53°33' E 009°55'0 0.0
2016-Jun-20 12:33N 53°33' E 009°55'0 0.3
2016-Jun-20 11:34N 53°32' E 009°56'0 0.3
2016-Jun-20 10:33N 53°33' E 009°55'0 0.0
2016-Jun-20 09:34N 53°33' E 009°55'0 0.0
2016-Jun-20 08:34N 53°33' E 009°55'0 0.0
2016-Jun-20 07:34N 53°33' E 009°55'1 1.4
2016-Jun-20 06:34N 53°33' E 009°58'3 3.0
2016-Jun-20 05:34N 53°30' E 009°59'1 0.6
2016-Jun-20 04:33N 53°29' E 009°59'4 4.1
2016-Jun-20 03:34N 53°33' E 009°55'0 0.0
2016-Jun-20 02:33N 53°33' E 009°55'0 0.0
2016-Jun-20 01:34N 53°33' E 009°55'0 0.0
2016-Jun-20 00:34N 53°33' E 009°55'0 0.0
2016-Jun-19 23:33N 53°33' E 009°55'0 0.0
2016-Jun-19 22:34N 53°33' E 009°55'0 0.0
2016-Jun-19 21:34N 53°33' E 009°55'0 0.0
2016-Jun-19 20:34N 53°33' E 009°55'0 0.0
2016-Jun-19 19:34N 53°33' E 009°55'0 0.0
2016-Jun-19 18:34N 53°33' E 009°55'0 0.0
2016-Jun-19 17:34N 53°33' E 009°55'0 0.0
2016-Jun-19 16:34N 53°33' E 009°55'1 0.5
2016-Jun-19 15:33N 53°32' E 009°56'1 0.5
2016-Jun-19 14:34N 53°33' E 009°55'0 0.0
2016-Jun-19 13:34N 53°33' E 009°55'0 0.0
2016-Jun-19 12:34N 53°33' E 009°55'0 0.0
2016-Jun-19 11:33N 53°33' E 009°55'2 1.7
2016-Jun-19 10:34N 53°33' E 009°53'0 0.1
2016-Jun-19 09:33N 53°33' E 009°52'2 1.7
2016-Jun-19 08:33N 53°32' E 009°55'1 0.8
2016-Jun-19 07:33N 53°33' E 009°55'0 0.0
2016-Jun-19 06:33N 53°33' E 009°55'0 0.0
2016-Jun-19 05:33N 53°33' E 009°55'0 0.0
2016-Jun-19 04:33N 53°33' E 009°55'0 0.0
2016-Jun-19 03:33N 53°33' E 009°55'0 0.0
2016-Jun-19 02:33N 53°33' E 009°55'2 1.6
2016-Jun-19 01:34N 53°31' E 009°56'2 1.6
2016-Jun-19 00:34N 53°33' E 009°55'0 0.1
2016-Jun-18 23:33N 53°33' E 009°55'0 0.0
2016-Jun-18 22:33N 53°33' E 009°55'0 0.0
2016-Jun-18 21:33N 53°33' E 009°55'0 0.0
2016-Jun-18 20:33N 53°33' E 009°55'0 0.0
2016-Jun-18 19:33N 53°33' E 009°55'0 0.0
2016-Jun-18 18:33N 53°33' E 009°55'0 0.0
2016-Jun-18 17:34N 53°33' E 009°55'0 0.0
2016-Jun-18 16:33N 53°33' E 009°55'0 0.0
2016-Jun-18 15:33N 53°33' E 009°55'0 0.0
2016-Jun-18 14:33N 53°33' E 009°55'0 0.0
2016-Jun-18 13:33N 53°33' E 009°55'0 0.0
2016-Jun-18 12:33N 53°33' E 009°55'0 0.0
2016-Jun-18 11:33N 53°33' E 009°55'0 0.0
2016-Jun-18 10:33N 53°33' E 009°55'0 0.0
2016-Jun-18 09:33N 53°33' E 009°55'0 0.0
2016-Jun-18 08:33N 53°33' E 009°55'2 2.4
2016-Jun-18 07:33N 53°30' E 009°56'2 2.4
2016-Jun-18 06:33N 53°33' E 009°55'0 0.0
2016-Jun-18 05:33N 53°33' E 009°55'1 0.9
2016-Jun-18 04:33N 53°32' E 009°55'1 0.9
2016-Jun-18 03:33N 53°33' E 009°55'0 0.0
2016-Jun-18 02:33N 53°33' E 009°55'0 0.0
2016-Jun-18 01:33N 53°33' E 009°55'0 0.0
2016-Jun-18 00:33N 53°33' E 009°55'0 0.0
2016-Jun-17 23:33N 53°33' E 009°55'3 3.0
2016-Jun-17 22:33N 53°30' E 009°57'1 1.0
2016-Jun-17 21:33N 53°29' E 009°58'4 4.0
2016-Jun-17 20:33N 53°33' E 009°55'0 0.0
2016-Jun-17 19:33N 53°33' E 009°55'0 0.0
2016-Jun-17 18:33N 53°33' E 009°55'0 0.0
2016-Jun-17 17:33N 53°33' E 009°55'0 0.0
2016-Jun-17 16:33N 53°33' E 009°55'0 0.0
2016-Jun-17 15:33N 53°33' E 009°55'0 0.0
2016-Jun-17 14:33N 53°33' E 009°55'1 0.8
2016-Jun-17 13:34N 53°32' E 009°55'6 6.2
2016-Jun-17 12:33N 53°34' E 009°45'3 3.1
2016-Jun-17 11:33N 53°33' E 009°50'3 3.2
2016-Jun-17 10:33N 53°33' E 009°55'0 0.0
2016-Jun-17 09:33N 53°33' E 009°55'0 0.0
2016-Jun-17 08:33N 53°33' E 009°55'0 0.0
2016-Jun-17 07:33N 53°33' E 009°55'0 0.0
2016-Jun-17 06:33N 53°33' E 009°55'0 0.0
2016-Jun-17 05:33N 53°33' E 009°55'1 1.3
2016-Jun-17 04:33N 53°32' E 009°53'1 1.3
2016-Jun-17 03:33N 53°33' E 009°55'0 0.0
2016-Jun-17 02:33N 53°33' E 009°55'1 0.9
2016-Jun-17 01:33N 53°32' E 009°55'2 2.4
2016-Jun-17 00:33N 53°33' E 009°52'4 3.9
2016-Jun-16 23:33N 53°34' E 009°45'6 5.9
2016-Jun-16 22:33N 53°33' E 009°55'0 0.0
2016-Jun-16 21:33N 53°33' E 009°55'0 0.0
2016-Jun-16 20:33N 53°33' E 009°55'0 0.0
2016-Jun-16 19:33N 53°33' E 009°55'0 0.0
2016-Jun-16 18:33N 53°33' E 009°55'0 0.0
2016-Jun-16 17:33N 53°33' E 009°55'0 0.0
2016-Jun-16 16:34N 53°33' E 009°55'0 0.0
2016-Jun-16 15:33N 53°33' E 009°55'0 0.0
2016-Jun-16 14:33N 53°33' E 009°55'0 0.1
2016-Jun-16 13:33N 53°33' E 009°55'0 0.0
2016-Jun-16 12:33N 53°33' E 009°55'0 0.4
2016-Jun-16 11:33N 53°32' E 009°55'4 4.0
2016-Jun-16 10:33N 53°29' E 009°58'2 2.1
2016-Jun-16 09:34N 53°31' E 009°57'1 1.2
2016-Jun-16 08:34N 53°32' E 009°56'1 1.0
2016-Jun-16 07:34N 53°32' E 009°55'3 2.5
2016-Jun-16 06:34N 53°33' E 009°50'3 2.9
2016-Jun-16 05:34N 53°33' E 009°55'0 0.0
2016-Jun-16 04:34N 53°33' E 009°55'0 0.0
2016-Jun-16 03:34N 53°33' E 009°55'0 0.0
2016-Jun-16 02:33N 53°33' E 009°55'0 0.0
2016-Jun-16 01:34N 53°33' E 009°55'0 0.0
2016-Jun-16 00:34N 53°33' E 009°55'0 0.0
2016-Jun-15 23:34N 53°33' E 009°55'0 0.0
2016-Jun-15 22:34N 53°33' E 009°55'0 0.0
2016-Jun-15 21:34N 53°33' E 009°55'0 0.0
2016-Jun-15 20:34N 53°33' E 009°55'0 0.0
2016-Jun-15 19:34N 53°33' E 009°55'0 0.0
2016-Jun-15 18:34N 53°33' E 009°55'0 0.0
2016-Jun-15 17:34N 53°33' E 009°55'0 0.0
2016-Jun-15 16:34N 53°33' E 009°55'0 0.0
2016-Jun-15 15:34N 53°33' E 009°55'0 0.0
2016-Jun-15 14:34N 53°33' E 009°55'0 0.0
2016-Jun-15 13:33N 53°33' E 009°55'0 0.0
2016-Jun-15 12:34N 53°33' E 009°55'0 0.0
2016-Jun-15 11:34N 53°33' E 009°55'0 0.0
2016-Jun-15 10:34N 53°33' E 009°55'0 0.0
2016-Jun-15 09:34N 53°33' E 009°55'0 0.0
2016-Jun-15 08:34N 53°33' E 009°55'3 2.8
2016-Jun-15 07:34N 53°30' E 009°57'3 2.9
2016-Jun-15 06:34N 53°32' E 009°54'1 0.6
2016-Jun-15 05:34N 53°33' E 009°55'1 0.7
2016-Jun-15 04:34N 53°32' E 009°54'  

Dump ship's entire track history